GRZ524 Details

Departure: Denver International Airport (KDEN)
Arrival: Edmonton International Airport (CYEG)
Route: RIKKK4 FISAR KU12U GGW YEA CAMRA IGSOX2


Current Weather Information
KDEN 250453Z 19013KT 10SM CLR 22/06 A3003 RMK AO2 SLP087 T02170056 $
CYEG 250400Z 23002KT 20SM FEW045TCU FEW140 SCT210 09/09 A2977 RMK TCU1AC1CI1 SLP093 DENSITY ALT 2500FT